Terminal Aerodrome Forecast
Issued by NWS

Current Version | Previous Version | Text Only | Print | Product List | Glossary On
Versions: 1 2 3 4 5 6 7 8 9 10 11 12
000
FTUS42 TJSJ 160500 RRA
TAFJMZ
TAF
TJMZ 160542Z 1606/1706 06005KT P6SM FEW025
     FM161330 26010KT P6SM SCT025 BKN040
      AMD NOT SKED TIL 161100=

USA.gov is the U.S. government's official web portal to all federal, state and local government web resources and services.